createdAt,value
2023-02-14T00:00:58.307Z,0.30
2023-02-14T00:02:02.010Z,0.30
2023-02-14T00:03:06.024Z,0.20
2023-02-14T00:04:08.651Z,0.10
2023-02-14T00:05:14.433Z,0.00
2023-02-14T00:06:17.702Z,-0.10
2023-02-14T00:07:21.837Z,-0.10
2023-02-14T00:08:25.975Z,-0.10
2023-02-14T00:09:29.585Z,-0.10
2023-02-14T00:10:32.358Z,-0.10
2023-02-14T00:11:38.508Z,-0.20
2023-02-14T00:12:41.116Z,-0.30
2023-02-14T00:14:05.903Z,-0.40
2023-02-14T00:15:23.309Z,-0.40
2023-02-14T00:16:26.495Z,-0.40
2023-02-14T00:17:31.105Z,-0.30
2023-02-14T00:18:55.069Z,-0.20
2023-02-14T00:19:58.864Z,-0.20
2023-02-14T00:21:01.247Z,-0.10
2023-02-14T00:22:05.348Z,0.00
2023-02-14T00:23:07.909Z,0.10
2023-02-14T00:24:15.846Z,0.10
2023-02-14T00:25:18.944Z,0.10
2023-02-14T00:26:23.359Z,0.00
2023-02-14T00:27:28.028Z,-0.20
2023-02-14T00:28:30.922Z,-0.20
2023-02-14T00:29:35.044Z,-0.20
2023-02-14T00:30:37.951Z,-0.20
2023-02-14T00:31:43.356Z,-0.10
2023-02-14T00:32:47.466Z,-0.10
2023-02-14T00:33:49.987Z,-0.10
2023-02-14T00:34:53.912Z,0.00
2023-02-14T00:35:56.999Z,-0.10
2023-02-14T00:38:36.913Z,-0.20
2023-02-14T00:39:42.471Z,-0.20
2023-02-14T00:40:45.158Z,-0.20
2023-02-14T00:41:49.476Z,-0.30
2023-02-14T00:42:53.205Z,-0.30
2023-02-14T00:44:02.166Z,-0.30
2023-02-14T00:45:06.564Z,-0.40
2023-02-14T00:46:11.255Z,-0.40
2023-02-14T00:47:16.181Z,-0.40
2023-02-14T00:48:18.705Z,-0.40
2023-02-14T00:49:22.630Z,-0.40
2023-02-14T00:50:25.328Z,-0.40
2023-02-14T00:51:30.646Z,-0.40
2023-02-14T00:52:34.695Z,-0.40
2023-02-14T00:53:37.716Z,-0.40
2023-02-14T00:54:45.333Z,-0.40
2023-02-14T00:55:49.626Z,-0.40
2023-02-14T00:56:53.486Z,-0.50
2023-02-14T00:57:56.295Z,-0.40
2023-02-14T00:59:01.289Z,-0.40
2023-02-14T01:00:05.968Z,-0.40
2023-02-14T01:01:09.717Z,-0.40
2023-02-14T01:02:13.722Z,-0.30
2023-02-14T01:03:16.377Z,-0.30
2023-02-14T01:04:20.428Z,-0.30
2023-02-14T01:05:23.113Z,-0.30
2023-02-14T01:06:27.430Z,-0.30
2023-02-14T01:07:32.528Z,-0.30
2023-02-14T01:08:37.595Z,-0.40
2023-02-14T01:09:42.872Z,-0.40
2023-02-14T01:10:46.916Z,-0.40
2023-02-14T01:11:49.653Z,-0.40
2023-02-14T01:12:53.553Z,-0.40
2023-02-14T01:13:57.834Z,-0.40
2023-02-14T01:15:03.008Z,-0.50
2023-02-14T01:16:07.843Z,-0.50
2023-02-14T01:17:12.222Z,-0.50
2023-02-14T01:18:15.876Z,-0.50
2023-02-14T01:19:19.610Z,-0.50
2023-02-14T01:20:22.174Z,-0.50
2023-02-14T01:21:28.068Z,-0.50
2023-02-14T01:23:58.806Z,-0.50
2023-02-14T01:25:02.765Z,-0.40
2023-02-14T01:26:07.800Z,-0.40
2023-02-14T01:31:16.018Z,-0.20
2023-02-14T01:32:18.562Z,-0.30
2023-02-14T01:36:43.835Z,-0.20
2023-02-14T01:37:48.713Z,-0.30
2023-02-14T01:38:53.070Z,-0.30
2023-02-14T01:39:56.546Z,-0.30
2023-02-14T01:41:00.824Z,-0.40
2023-02-14T01:42:04.701Z,-0.60
2023-02-14T01:43:13.569Z,-0.60
2023-02-14T01:44:56.262Z,-0.60
2023-02-14T01:45:59.298Z,-0.50
2023-02-14T01:47:06.354Z,-0.50
2023-02-14T01:48:10.280Z,-0.50
2023-02-14T01:49:18.190Z,-0.60
2023-02-14T01:50:26.439Z,-0.60
2023-02-14T01:51:31.570Z,-0.60
2023-02-14T01:52:38.224Z,-0.70
2023-02-14T01:53:43.134Z,-0.70
2023-02-14T01:54:51.594Z,-0.70
2023-02-14T01:56:06.895Z,-0.70
2023-02-14T01:57:12.513Z,-0.70
2023-02-14T01:58:21.756Z,-0.60
2023-02-14T01:59:28.177Z,-0.60
2023-02-14T02:00:49.836Z,-0.60
2023-02-14T02:01:54.246Z,-0.60
2023-02-14T02:02:57.305Z,-0.80
2023-02-14T02:04:08.575Z,-0.70
2023-02-14T02:05:12.212Z,-0.70
2023-02-14T02:06:18.554Z,-0.70
2023-02-14T02:07:26.129Z,-0.70
2023-02-14T02:08:30.125Z,-0.90
2023-02-14T02:09:34.793Z,-0.90
2023-02-14T02:10:38.546Z,-0.90
2023-02-14T02:11:43.275Z,-0.80
2023-02-14T02:12:47.299Z,-0.80
2023-02-14T02:13:50.294Z,-0.70
2023-02-14T02:14:59.065Z,-0.70
2023-02-14T02:16:27.461Z,-0.70
2023-02-14T02:17:40.085Z,-0.80
2023-02-14T02:18:58.458Z,-0.80
2023-02-14T02:20:48.836Z,-0.80
2023-02-14T02:22:26.924Z,-0.70
2023-02-14T02:24:09.235Z,-0.70
2023-02-14T02:25:28.208Z,-0.80
2023-02-14T02:27:00.773Z,-0.70
2023-02-14T02:28:32.140Z,-0.70
2023-02-14T02:30:11.076Z,-0.70
2023-02-14T02:31:39.344Z,-0.70
2023-02-14T02:33:18.968Z,-0.70
2023-02-14T02:35:06.660Z,-0.70
2023-02-14T02:36:32.096Z,-0.70
2023-02-14T02:37:43.383Z,-0.60
2023-02-14T02:39:07.124Z,-0.70
2023-02-14T02:40:23.217Z,-0.90
2023-02-14T02:41:35.798Z,-0.90
2023-02-14T02:42:50.218Z,-0.90
2023-02-14T02:43:57.155Z,-0.90
2023-02-14T02:45:11.300Z,-0.90
2023-02-14T02:46:39.996Z,-0.80
2023-02-14T02:47:56.452Z,-0.80
2023-02-14T02:49:06.087Z,-0.80
2023-02-14T02:50:39.268Z,-0.70
2023-02-14T02:52:07.611Z,-0.70
2023-02-14T02:53:21.214Z,-0.80
2023-02-14T02:54:31.492Z,-0.80
2023-02-14T02:56:03.490Z,-0.80
2023-02-14T02:57:15.490Z,-0.80
2023-02-14T02:58:20.291Z,-0.80
2023-02-14T02:59:27.871Z,-0.80
2023-02-14T03:00:32.472Z,-0.80
2023-02-14T03:01:41.667Z,-0.80
2023-02-14T03:03:07.422Z,-0.80
2023-02-14T03:04:31.106Z,-0.80
2023-02-14T03:05:36.787Z,-0.90
2023-02-14T03:06:40.238Z,-0.90
2023-02-14T03:07:42.667Z,-0.80
2023-02-14T03:08:48.926Z,-0.80
2023-02-14T03:09:54.342Z,-0.80
2023-02-14T03:10:59.768Z,-0.80
2023-02-14T03:12:23.031Z,-0.90
2023-02-14T03:13:49.810Z,-0.90
2023-02-14T03:14:57.470Z,-0.90
2023-02-14T03:16:25.399Z,-0.90
2023-02-14T03:17:36.343Z,-0.90
2023-02-14T03:18:54.453Z,-0.80
2023-02-14T03:20:14.568Z,-0.90
2023-02-14T03:21:26.708Z,-0.90
2023-02-14T03:22:42.511Z,-1.00
2023-02-14T03:23:54.557Z,-1.00
2023-02-14T03:25:07.547Z,-1.00
2023-02-14T03:26:16.936Z,-1.00
2023-02-14T03:27:28.332Z,-0.90
2023-02-14T03:28:40.517Z,-1.00
2023-02-14T03:29:53.957Z,-0.90
2023-02-14T03:31:03.586Z,-0.90
2023-02-14T03:32:13.611Z,-0.90
2023-02-14T03:33:23.220Z,-0.80
2023-02-14T03:34:35.470Z,-0.80
2023-02-14T03:35:46.898Z,-0.80
2023-02-14T03:36:56.379Z,-0.80
2023-02-14T03:38:09.403Z,-0.90
2023-02-14T03:39:16.462Z,-0.90
2023-02-14T03:40:24.859Z,-1.00
2023-02-14T03:41:33.652Z,-1.10
2023-02-14T03:42:41.286Z,-1.10
2023-02-14T03:43:48.816Z,-1.00
2023-02-14T03:44:56.282Z,-1.00
2023-02-14T03:46:04.900Z,-0.90
2023-02-14T03:47:14.101Z,-0.80
2023-02-14T03:48:19.149Z,-0.80
2023-02-14T03:49:27.958Z,-0.80
2023-02-14T03:50:33.507Z,-0.80
2023-02-14T03:51:38.853Z,-0.80
2023-02-14T03:52:44.154Z,-0.90
2023-02-14T03:53:52.014Z,-1.00
2023-02-14T03:54:58.999Z,-1.00
2023-02-14T03:56:08.961Z,-0.90
2023-02-14T03:57:18.621Z,-0.90
2023-02-14T03:58:29.712Z,-0.90
2023-02-14T03:59:33.022Z,-1.00
2023-02-14T04:00:41.891Z,-1.00
2023-02-14T04:01:50.439Z,-1.00
2023-02-14T04:02:57.534Z,-1.00
2023-02-14T04:04:06.137Z,-1.00
2023-02-14T04:05:20.051Z,-1.00
2023-02-14T04:06:26.157Z,-1.00
2023-02-14T04:07:28.562Z,-1.00
2023-02-14T04:08:33.948Z,-1.00
2023-02-14T04:09:36.611Z,-1.00
2023-02-14T04:10:44.566Z,-0.90
2023-02-14T04:11:50.461Z,-0.90
2023-02-14T04:12:55.898Z,-0.90
2023-02-14T04:13:58.959Z,-0.90
2023-02-14T04:15:03.055Z,-0.90
2023-02-14T04:16:06.780Z,-0.90
2023-02-14T04:17:28.112Z,-0.90
2023-02-14T04:18:49.149Z,-0.90
2023-02-14T04:19:52.687Z,-0.90
2023-02-14T04:20:55.132Z,-0.90
2023-02-14T04:21:59.163Z,-1.00
2023-02-14T04:23:03.547Z,-1.00
2023-02-14T04:24:10.173Z,-1.00
2023-02-14T04:25:12.972Z,-1.00
2023-02-14T04:26:17.658Z,-1.00
2023-02-14T04:27:20.353Z,-1.00
2023-02-14T04:28:24.239Z,-0.90
2023-02-14T04:29:27.326Z,-0.90
2023-02-14T04:30:32.012Z,-0.80
2023-02-14T04:31:37.500Z,-0.80
2023-02-14T04:32:41.862Z,-0.80
2023-02-14T04:33:46.244Z,-0.80
2023-02-14T04:34:50.919Z,-0.80
2023-02-14T04:35:53.582Z,-0.90
2023-02-14T04:36:57.131Z,-1.10
2023-02-14T04:38:01.342Z,-1.20
2023-02-14T04:39:03.982Z,-1.20
2023-02-14T04:40:10.513Z,-1.20
2023-02-14T04:41:13.428Z,-1.00
2023-02-14T04:42:17.926Z,-1.00
2023-02-14T04:43:20.558Z,-1.00
2023-02-14T04:44:24.186Z,-1.00
2023-02-14T04:46:45.889Z,-0.90
2023-02-14T04:47:48.785Z,-1.00
2023-02-14T04:48:52.166Z,-1.00
2023-02-14T04:49:54.745Z,-1.00
2023-02-14T04:50:59.762Z,-1.00
2023-02-14T04:52:03.599Z,-1.00
2023-02-14T04:53:08.220Z,-1.00
2023-02-14T04:54:11.543Z,-1.00
2023-02-14T04:55:16.849Z,-1.00
2023-02-14T04:56:19.635Z,-1.00
2023-02-14T04:57:23.733Z,-1.00
2023-02-14T04:58:26.646Z,-1.00
2023-02-14T04:59:31.702Z,-1.10
2023-02-14T05:00:34.541Z,-1.10
2023-02-14T05:01:38.666Z,-1.10
2023-02-14T05:02:41.640Z,-1.10
2023-02-14T05:03:46.074Z,-1.00
2023-02-14T05:04:49.834Z,-1.00
2023-02-14T05:05:53.803Z,-0.90
2023-02-14T05:06:56.475Z,-1.00
2023-02-14T05:08:00.479Z,-0.90
2023-02-14T05:09:04.511Z,-1.00
2023-02-14T05:10:10.031Z,-1.10
2023-02-14T05:11:15.726Z,-1.00
2023-02-14T05:12:20.387Z,-0.90
2023-02-14T05:13:24.527Z,-0.90
2023-02-14T05:14:28.545Z,-0.90
2023-02-14T05:15:31.017Z,-0.80
2023-02-14T05:16:36.423Z,-0.80
2023-02-14T05:17:39.019Z,-0.80
2023-02-14T05:18:44.531Z,-0.90
2023-02-14T05:19:47.075Z,-1.00
2023-02-14T05:20:53.207Z,-1.00
2023-02-14T05:21:56.626Z,-1.20
2023-02-14T05:23:05.426Z,-1.40
2023-02-14T05:24:08.451Z,-1.40
2023-02-14T05:25:13.064Z,-1.50
2023-02-14T05:26:17.308Z,-1.50
2023-02-14T05:27:21.152Z,-1.50
2023-02-14T05:28:24.451Z,-1.40
2023-02-14T05:29:28.997Z,-1.40
2023-02-14T05:30:32.827Z,-1.30
2023-02-14T05:31:37.522Z,-1.20
2023-02-14T05:32:42.161Z,-1.10
2023-02-14T05:33:45.935Z,-1.10
2023-02-14T05:34:48.537Z,-1.00
2023-02-14T05:35:52.823Z,-1.00
2023-02-14T05:36:56.062Z,-0.90
2023-02-14T05:38:00.766Z,-0.90
2023-02-14T05:39:03.530Z,-1.00
2023-02-14T05:40:11.017Z,-1.20
2023-02-14T05:41:13.885Z,-1.20
2023-02-14T05:42:20.271Z,-1.20
2023-02-14T05:43:23.238Z,-1.20
2023-02-14T05:44:28.091Z,-1.10
2023-02-14T05:45:31.073Z,-1.10
2023-02-14T05:46:35.442Z,-1.10
2023-02-14T05:47:39.208Z,-1.00
2023-02-14T05:48:43.109Z,-1.00
2023-02-14T05:49:45.430Z,-1.00
2023-02-14T05:50:50.302Z,-1.10
2023-02-14T05:51:54.318Z,-1.20
2023-02-14T05:52:56.657Z,-1.30
2023-02-14T05:54:01.304Z,-1.20
2023-02-14T05:55:04.117Z,-1.20
2023-02-14T05:56:09.207Z,-1.20
2023-02-14T05:57:11.718Z,-1.30
2023-02-14T05:58:17.173Z,-1.30
2023-02-14T05:59:21.285Z,-1.30
2023-02-14T06:00:24.609Z,-1.20
2023-02-14T06:01:28.800Z,-1.20
2023-02-14T06:02:31.670Z,-1.20
2023-02-14T06:03:37.001Z,-1.20
2023-02-14T06:04:40.295Z,-1.20
2023-02-14T06:05:45.207Z,-1.20
2023-02-14T06:06:47.938Z,-1.20
2023-02-14T06:07:52.639Z,-1.20
2023-02-14T06:08:55.763Z,-1.20
2023-02-14T06:10:03.657Z,-1.20
2023-02-14T06:11:08.720Z,-1.20
2023-02-14T06:12:11.450Z,-1.20
2023-02-14T06:13:17.199Z,-1.20
2023-02-14T06:14:19.862Z,-1.20
2023-02-14T06:15:23.678Z,-1.20
2023-02-14T06:16:27.723Z,-1.20
2023-02-14T06:17:30.672Z,-1.30
2023-02-14T06:18:35.472Z,-1.20
2023-02-14T06:19:38.491Z,-1.20
2023-02-14T06:20:42.439Z,-1.20
2023-02-14T06:21:47.600Z,-1.30
2023-02-14T06:22:51.678Z,-1.30
2023-02-14T06:23:56.374Z,-1.40
2023-02-14T06:24:58.805Z,-1.30
2023-02-14T06:26:02.723Z,-1.30
2023-02-14T06:27:06.668Z,-1.10
2023-02-14T06:28:11.537Z,-0.30
2023-02-14T06:29:17.419Z,0.60
2023-02-14T06:30:21.585Z,1.30
2023-02-14T06:31:27.529Z,1.60
2023-02-14T06:32:30.443Z,1.90
2023-02-14T06:33:33.849Z,1.60
2023-02-14T06:34:37.568Z,1.20
2023-02-14T06:35:41.741Z,0.70
2023-02-14T06:36:45.130Z,0.30
2023-02-14T06:37:49.873Z,0.20
2023-02-14T06:38:53.588Z,0.00
2023-02-14T06:39:58.037Z,-0.10
2023-02-14T06:41:04.578Z,-0.30
2023-02-14T06:42:09.798Z,-0.60
2023-02-14T06:43:15.717Z,-0.80
2023-02-14T06:44:22.083Z,-0.80
2023-02-14T06:45:25.149Z,-1.00
2023-02-14T06:46:29.117Z,-1.00
2023-02-14T06:47:34.960Z,-1.10
2023-02-14T06:48:39.172Z,-1.20
2023-02-14T06:49:42.126Z,-1.20
2023-02-14T06:50:46.001Z,-1.20
2023-02-14T06:51:48.993Z,-1.20
2023-02-14T06:52:53.198Z,-1.30
2023-02-14T06:53:57.054Z,-1.30
2023-02-14T06:55:00.115Z,-1.40
2023-02-14T06:56:04.151Z,-1.50
2023-02-14T06:57:08.149Z,-1.50
2023-02-14T06:58:12.300Z,-1.50
2023-02-14T06:59:14.933Z,-1.60
2023-02-14T07:00:24.194Z,-1.50
2023-02-14T07:01:28.215Z,-1.60
2023-02-14T07:02:32.120Z,-1.70
2023-02-14T07:03:34.631Z,-1.70
2023-02-14T07:04:38.663Z,-1.60
2023-02-14T07:05:41.345Z,-1.60
2023-02-14T07:06:44.924Z,-1.50
2023-02-14T07:07:48.261Z,-1.40
2023-02-14T07:08:51.595Z,-1.40
2023-02-14T07:09:53.792Z,-1.40
2023-02-14T07:10:58.889Z,-1.30
2023-02-14T07:12:01.428Z,-1.30
2023-02-14T07:13:05.475Z,-1.30
2023-02-14T07:14:08.820Z,-1.20
2023-02-14T07:15:13.318Z,-1.20
2023-02-14T07:16:18.066Z,-1.20
2023-02-14T07:17:20.297Z,-1.30
2023-02-14T07:18:23.620Z,-1.30
2023-02-14T07:19:26.985Z,-1.30
2023-02-14T07:20:29.476Z,-1.50
2023-02-14T07:21:32.670Z,-1.50
2023-02-14T07:22:34.860Z,-1.60
2023-02-14T07:23:37.984Z,-1.70
2023-02-14T07:24:41.172Z,-1.70
2023-02-14T07:25:43.542Z,-1.70
2023-02-14T07:26:46.792Z,-1.70
2023-02-14T07:27:50.238Z,-1.60
2023-02-14T07:28:52.454Z,-1.50
2023-02-14T07:29:55.972Z,-1.50
2023-02-14T07:31:01.710Z,-1.40
2023-02-14T07:32:06.950Z,-1.30
2023-02-14T07:33:09.748Z,-1.30
2023-02-14T07:34:13.200Z,-1.20
2023-02-14T07:35:16.587Z,-1.20
2023-02-14T07:36:19.355Z,-1.20
2023-02-14T07:37:22.512Z,-1.20
2023-02-14T07:38:24.821Z,-1.20
2023-02-14T07:39:28.102Z,-1.20
2023-02-14T07:40:30.334Z,-1.10
2023-02-14T07:41:33.599Z,-1.10
2023-02-14T07:42:36.832Z,-1.00
2023-02-14T07:43:40.677Z,-1.10
2023-02-14T07:44:42.988Z,-1.00
2023-02-14T07:45:46.623Z,-1.00
2023-02-14T07:46:48.816Z,-1.10
2023-02-14T07:47:55.386Z,-1.00
2023-02-14T07:48:58.538Z,-0.90
2023-02-14T07:50:00.566Z,-0.80
2023-02-14T07:51:03.934Z,-0.80
2023-02-14T07:52:06.110Z,-0.80
2023-02-14T07:53:09.529Z,-0.80
2023-02-14T07:54:12.638Z,-0.80
2023-02-14T07:55:16.286Z,-0.80
2023-02-14T07:56:19.441Z,-0.70
2023-02-14T07:57:21.612Z,-0.70
2023-02-14T07:58:24.750Z,-0.70
2023-02-14T07:59:27.861Z,-0.60
2023-02-14T08:00:31.623Z,-0.50
2023-02-14T08:01:34.819Z,-0.50
2023-02-14T08:02:37.921Z,-0.50
2023-02-14T08:03:44.509Z,-0.40
2023-02-14T08:04:47.647Z,-0.30
2023-02-14T08:05:57.204Z,-0.30
2023-02-14T08:07:00.433Z,-0.40
2023-02-14T08:08:02.457Z,-0.40
2023-02-14T08:09:05.535Z,-0.40
2023-02-14T08:10:11.390Z,-0.30
2023-02-14T08:11:36.294Z,-0.20
2023-02-14T08:12:56.766Z,-0.10
2023-02-14T08:13:58.951Z,-0.10
2023-02-14T08:15:15.862Z,-0.10
2023-02-14T08:16:19.066Z,-0.10
2023-02-14T08:17:21.226Z,-0.20
2023-02-14T08:18:24.590Z,-0.40
2023-02-14T08:19:29.494Z,-0.60
2023-02-14T08:20:32.798Z,-0.80
2023-02-14T08:21:35.889Z,-0.90
2023-02-14T08:22:37.967Z,-0.90
2023-02-14T08:24:00.131Z,-0.90
2023-02-14T08:25:02.294Z,-0.80
2023-02-14T08:26:05.629Z,-0.80
2023-02-14T08:27:07.779Z,-0.70
2023-02-14T08:28:11.113Z,-0.70
2023-02-14T08:29:16.624Z,-0.60
2023-02-14T08:30:19.149Z,-0.60
2023-02-14T08:31:35.123Z,-0.70
2023-02-14T08:32:38.452Z,-0.70
2023-02-14T08:33:44.240Z,-0.80
2023-02-14T08:34:48.360Z,-0.70
2023-02-14T08:35:52.778Z,-0.50
2023-02-14T08:36:55.437Z,-0.40
2023-02-14T08:37:58.893Z,-0.20
2023-02-14T08:39:01.471Z,-0.10
2023-02-14T08:40:04.834Z,-0.10
2023-02-14T08:41:09.113Z,0.00
2023-02-14T08:42:12.069Z,0.00
2023-02-14T08:43:16.317Z,0.10
2023-02-14T08:44:22.392Z,-0.10
2023-02-14T08:45:24.506Z,-0.20
2023-02-14T08:46:27.672Z,-0.20
2023-02-14T08:47:31.283Z,-0.20
2023-02-14T08:48:38.797Z,-0.10
2023-02-14T08:49:42.342Z,-0.10
2023-02-14T08:50:47.112Z,-0.10
2023-02-14T08:51:50.240Z,-0.10
2023-02-14T08:52:53.405Z,0.00
2023-02-14T08:53:56.516Z,0.00
2023-02-14T08:54:58.822Z,-0.10
2023-02-14T08:56:04.818Z,-0.30
2023-02-14T08:57:08.241Z,-0.20
2023-02-14T08:58:10.585Z,0.00
2023-02-14T08:59:13.931Z,0.10
2023-02-14T09:00:16.919Z,0.30
2023-02-14T09:01:20.188Z,0.40
2023-02-14T09:02:23.405Z,0.40
2023-02-14T09:03:26.714Z,0.40
2023-02-14T09:04:28.885Z,0.40
2023-02-14T09:05:32.510Z,0.40
2023-02-14T09:06:38.677Z,0.50
2023-02-14T09:07:40.735Z,0.50
2023-02-14T09:08:44.995Z,0.50
2023-02-14T09:09:47.207Z,0.50
2023-02-14T09:10:50.279Z,0.40
2023-02-14T09:11:52.328Z,0.40
2023-02-14T09:12:55.687Z,0.40
2023-02-14T09:13:58.311Z,0.40
2023-02-14T09:15:01.411Z,0.50
2023-02-14T09:16:05.397Z,0.50
2023-02-14T09:17:08.925Z,0.60
2023-02-14T09:18:12.135Z,0.60
2023-02-14T09:19:15.654Z,0.50
2023-02-14T09:20:18.798Z,0.50
2023-02-14T09:21:23.874Z,0.60
2023-02-14T09:22:28.888Z,0.70
2023-02-14T09:23:31.272Z,0.80
2023-02-14T09:24:36.349Z,0.80
2023-02-14T09:25:39.533Z,0.70
2023-02-14T09:26:42.203Z,0.80
2023-02-14T09:27:45.449Z,0.80
2023-02-14T09:28:49.327Z,0.80
2023-02-14T09:29:52.472Z,0.90
2023-02-14T09:30:55.560Z,0.90
2023-02-14T09:31:59.693Z,0.90
2023-02-14T09:33:04.536Z,1.00
2023-02-14T09:34:06.662Z,1.00
2023-02-14T09:35:09.954Z,1.00
2023-02-14T09:36:21.415Z,1.20
2023-02-14T09:37:24.510Z,1.30
2023-02-14T09:38:28.147Z,1.50
2023-02-14T09:39:31.319Z,1.30
2023-02-14T09:40:34.768Z,1.10
2023-02-14T09:42:01.259Z,1.00
2023-02-14T09:43:13.281Z,1.00
2023-02-14T09:44:26.054Z,1.10
2023-02-14T09:45:31.675Z,1.20
2023-02-14T09:46:43.192Z,1.30
2023-02-14T09:47:50.698Z,1.30
2023-02-14T09:48:54.836Z,1.20
2023-02-14T09:49:58.485Z,1.20
2023-02-14T09:51:05.154Z,1.30
2023-02-14T09:52:14.579Z,1.50
2023-02-14T09:53:23.954Z,1.60
2023-02-14T09:54:29.821Z,1.40
2023-02-14T09:55:39.802Z,1.40
2023-02-14T09:56:52.224Z,1.30
2023-02-14T09:58:07.415Z,1.40
2023-02-14T09:59:16.265Z,1.70
2023-02-14T10:00:24.483Z,1.60
2023-02-14T10:01:31.749Z,1.70
2023-02-14T10:02:49.938Z,1.60
2023-02-14T10:04:18.636Z,1.50
2023-02-14T10:05:26.181Z,1.30
2023-02-14T10:06:47.036Z,1.30
2023-02-14T10:07:58.800Z,1.40
2023-02-14T10:09:09.601Z,1.60
2023-02-14T10:10:17.915Z,1.80
2023-02-14T10:11:24.782Z,1.90
2023-02-14T10:12:32.617Z,1.80
2023-02-14T10:13:41.802Z,2.00
2023-02-14T10:14:45.244Z,2.10
2023-02-14T10:15:51.977Z,1.90
2023-02-14T10:16:59.652Z,2.00
2023-02-14T10:18:10.722Z,2.00
2023-02-14T10:19:20.797Z,1.90
2023-02-14T10:20:28.177Z,1.80
2023-02-14T10:21:37.236Z,1.90
2023-02-14T10:22:45.329Z,2.00
2023-02-14T10:23:54.475Z,2.20
2023-02-14T10:25:02.888Z,2.20
2023-02-14T10:26:10.702Z,2.20
2023-02-14T10:27:27.604Z,2.20
2023-02-14T10:28:36.410Z,2.30
2023-02-14T10:29:40.132Z,2.40
2023-02-14T10:30:48.456Z,2.50
2023-02-14T10:31:56.413Z,2.60
2023-02-14T10:33:06.333Z,2.70
2023-02-14T10:34:17.014Z,2.70
2023-02-14T10:35:31.048Z,2.60
2023-02-14T10:36:48.167Z,2.70
2023-02-14T10:38:02.311Z,2.50
2023-02-14T10:39:22.121Z,2.50
2023-02-14T10:40:45.889Z,2.40
2023-02-14T10:41:51.983Z,2.40
2023-02-14T10:43:02.271Z,2.50
2023-02-14T10:44:19.333Z,2.50
2023-02-14T10:45:29.877Z,2.50
2023-02-14T10:46:41.914Z,2.50
2023-02-14T10:47:52.948Z,2.50
2023-02-14T10:49:03.271Z,2.50
2023-02-14T10:50:17.772Z,2.50
2023-02-14T10:51:25.810Z,2.50
2023-02-14T10:52:36.310Z,2.60
2023-02-14T10:53:44.969Z,2.70
2023-02-14T10:54:54.125Z,2.80
2023-02-14T10:56:03.747Z,2.80
2023-02-14T10:57:15.795Z,2.70
2023-02-14T10:58:22.253Z,2.80
2023-02-14T10:59:28.697Z,2.90
2023-02-14T11:00:35.375Z,2.90
2023-02-14T11:01:38.692Z,3.00
2023-02-14T11:02:45.046Z,3.00
2023-02-14T11:04:04.209Z,3.00
2023-02-14T11:05:08.069Z,3.00
2023-02-14T11:06:12.746Z,2.90
2023-02-14T11:07:16.228Z,3.00
2023-02-14T11:08:26.325Z,3.10
2023-02-14T11:09:29.355Z,3.00
2023-02-14T11:10:35.706Z,3.00
2023-02-14T11:11:41.160Z,2.90
2023-02-14T11:12:45.656Z,3.00
2023-02-14T11:13:48.955Z,3.00
2023-02-14T11:15:10.968Z,3.00
2023-02-14T11:16:20.737Z,3.00
2023-02-14T11:17:28.805Z,3.00
2023-02-14T11:18:35.722Z,3.00
2023-02-14T11:19:38.938Z,3.10
2023-02-14T11:20:42.039Z,3.10
2023-02-14T11:21:46.683Z,3.20
2023-02-14T11:22:50.342Z,3.30
2023-02-14T11:23:53.395Z,3.30
2023-02-14T11:25:04.881Z,3.30
2023-02-14T11:26:15.442Z,3.40
2023-02-14T11:27:21.139Z,3.50
2023-02-14T11:28:25.740Z,3.60
2023-02-14T11:29:31.491Z,3.60
2023-02-14T11:30:41.061Z,3.60
2023-02-14T11:31:44.731Z,3.60
2023-02-14T11:32:56.073Z,3.70
2023-02-14T11:34:01.881Z,3.70
2023-02-14T11:35:09.179Z,3.80
2023-02-14T11:36:14.668Z,3.80
2023-02-14T11:37:26.174Z,3.80
2023-02-14T11:38:31.739Z,3.80
2023-02-14T11:39:36.440Z,3.80
2023-02-14T11:40:41.398Z,3.80
2023-02-14T11:41:49.544Z,3.80
2023-02-14T11:42:57.827Z,3.80
2023-02-14T11:44:22.338Z,3.80
2023-02-14T11:45:34.582Z,3.90
2023-02-14T11:46:47.606Z,3.80
2023-02-14T11:48:10.201Z,3.80
2023-02-14T11:49:29.610Z,3.90
2023-02-14T11:50:33.114Z,3.90
2023-02-14T11:51:40.188Z,3.90
2023-02-14T11:52:50.311Z,3.90
2023-02-14T11:53:55.975Z,4.00
2023-02-14T11:55:00.330Z,4.10
2023-02-14T11:56:02.487Z,4.10
2023-02-14T11:57:08.738Z,4.10
2023-02-14T11:58:31.905Z,4.10
2023-02-14T11:59:42.063Z,4.10
2023-02-14T12:00:52.838Z,4.10
2023-02-14T12:01:57.842Z,4.10
2023-02-14T12:03:04.754Z,4.00
2023-02-14T12:04:16.068Z,4.00
2023-02-14T12:05:21.541Z,4.10
2023-02-14T12:06:26.564Z,4.20
2023-02-14T12:07:33.121Z,4.20
2023-02-14T12:08:38.992Z,4.20
2023-02-14T12:09:43.247Z,4.30
2023-02-14T12:11:01.616Z,4.20
2023-02-14T12:12:16.597Z,4.30
2023-02-14T12:13:26.648Z,4.30
2023-02-14T12:14:32.932Z,4.30
2023-02-14T12:15:40.437Z,4.30
2023-02-14T12:16:50.210Z,4.30
2023-02-14T12:17:57.747Z,4.30
2023-02-14T12:19:04.751Z,4.40
2023-02-14T12:20:11.951Z,4.50
2023-02-14T12:21:41.816Z,4.50
2023-02-14T12:22:50.932Z,4.50
2023-02-14T12:24:04.316Z,4.50
2023-02-14T12:25:12.947Z,4.50
2023-02-14T12:26:25.271Z,4.50
2023-02-14T12:27:31.309Z,4.50
2023-02-14T12:28:40.247Z,4.50
2023-02-14T12:29:48.421Z,4.50
2023-02-14T12:30:53.097Z,4.60
2023-02-14T12:32:02.047Z,4.60
2023-02-14T12:33:17.470Z,4.70
2023-02-14T12:34:21.431Z,4.70
2023-02-14T12:35:42.192Z,4.80
2023-02-14T12:37:07.042Z,4.80
2023-02-14T12:38:18.489Z,4.90
2023-02-14T12:39:29.263Z,4.90
2023-02-14T12:40:43.086Z,5.00
2023-02-14T12:41:53.319Z,5.00
2023-02-14T12:43:09.905Z,4.90
2023-02-14T12:44:22.430Z,4.90
2023-02-14T12:45:43.361Z,4.90
2023-02-14T12:47:14.424Z,4.90
2023-02-14T12:48:28.506Z,4.80
2023-02-14T12:50:00.364Z,4.90
2023-02-14T12:51:11.609Z,4.90
2023-02-14T12:52:34.081Z,4.90
2023-02-14T12:53:49.050Z,5.00
2023-02-14T12:55:06.175Z,4.90
2023-02-14T12:56:17.714Z,5.00
2023-02-14T12:57:36.580Z,5.10
2023-02-14T12:58:47.742Z,5.10
2023-02-14T12:59:58.705Z,5.00
2023-02-14T13:01:28.393Z,5.10
2023-02-14T13:03:10.948Z,5.20
2023-02-14T13:04:55.148Z,5.10
2023-02-14T13:06:05.647Z,5.10
2023-02-14T13:07:16.167Z,5.10
2023-02-14T13:08:31.639Z,5.10
2023-02-14T13:09:40.580Z,5.10
2023-02-14T13:10:56.891Z,5.10
2023-02-14T13:12:14.008Z,5.10
2023-02-14T13:13:25.432Z,5.10
2023-02-14T13:14:46.536Z,5.20
2023-02-14T13:15:56.887Z,5.20
2023-02-14T13:17:08.506Z,5.20
2023-02-14T13:18:22.673Z,5.20
2023-02-14T13:19:36.377Z,5.30
2023-02-14T13:20:49.701Z,5.30
2023-02-14T13:21:52.489Z,5.30
2023-02-14T13:22:56.957Z,5.40
2023-02-14T13:24:13.183Z,5.30
2023-02-14T13:25:30.993Z,5.40
2023-02-14T13:26:39.716Z,5.40
2023-02-14T13:27:43.114Z,5.40
2023-02-14T13:28:51.351Z,5.40
2023-02-14T13:29:58.839Z,5.40
2023-02-14T13:31:02.861Z,5.40
2023-02-14T13:32:06.886Z,5.40
2023-02-14T13:33:24.319Z,5.40
2023-02-14T13:34:30.526Z,5.40
2023-02-14T13:35:34.632Z,5.40
2023-02-14T13:36:38.602Z,5.30
2023-02-14T13:37:46.356Z,5.30
2023-02-14T13:38:51.535Z,5.30
2023-02-14T13:39:57.448Z,5.30
2023-02-14T13:41:02.361Z,5.30
2023-02-14T13:42:05.112Z,5.30
2023-02-14T13:43:08.276Z,5.40
2023-02-14T13:44:11.302Z,5.30
2023-02-14T13:46:04.142Z,5.40
2023-02-14T13:47:08.085Z,5.40
2023-02-14T13:48:13.002Z,5.40
2023-02-14T13:49:27.908Z,5.40
2023-02-14T13:50:30.078Z,5.30
2023-02-14T13:51:50.136Z,5.30
2023-02-14T13:52:52.240Z,5.20
2023-02-14T13:53:55.871Z,5.20
2023-02-14T13:55:04.421Z,5.20
2023-02-14T13:56:35.350Z,5.10
2023-02-14T13:57:41.343Z,5.10
2023-02-14T13:58:48.106Z,5.10
2023-02-14T14:00:31.238Z,5.10
2023-02-14T14:01:40.516Z,5.00
2023-02-14T14:02:45.766Z,5.00
2023-02-14T14:03:58.026Z,4.90
2023-02-14T14:05:02.462Z,4.90
2023-02-14T14:06:07.149Z,4.80
2023-02-14T14:07:27.130Z,4.90
2023-02-14T14:08:45.030Z,4.90
2023-02-14T14:09:56.665Z,4.90
2023-02-14T14:11:01.754Z,4.90
2023-02-14T14:12:05.079Z,5.00
2023-02-14T14:13:09.074Z,5.00
2023-02-14T14:14:36.175Z,4.90
2023-02-14T14:15:59.543Z,4.90
2023-02-14T14:17:02.509Z,4.90
2023-02-14T14:18:38.471Z,4.80
2023-02-14T14:19:42.767Z,4.70
2023-02-14T14:20:49.080Z,4.70
2023-02-14T14:22:01.893Z,4.70
2023-02-14T14:23:25.807Z,4.70
2023-02-14T14:24:31.552Z,4.80
2023-02-14T14:25:38.051Z,4.70
2023-02-14T14:26:43.726Z,4.80
2023-02-14T14:27:47.879Z,4.80
2023-02-14T14:28:50.182Z,4.80
2023-02-14T14:29:56.051Z,4.70
2023-02-14T14:30:59.864Z,4.70
2023-02-14T14:32:10.218Z,4.70
2023-02-14T14:33:18.075Z,4.70
2023-02-14T14:34:21.436Z,4.60
2023-02-14T14:35:26.273Z,4.60
2023-02-14T14:36:29.799Z,4.50
2023-02-14T14:37:34.473Z,4.50
2023-02-14T14:38:50.059Z,4.50
2023-02-14T14:39:54.737Z,4.40
2023-02-14T14:40:57.255Z,4.40
2023-02-14T14:42:08.204Z,4.40
2023-02-14T14:43:14.774Z,4.30
2023-02-14T14:44:18.396Z,4.40
2023-02-14T14:45:25.124Z,4.30
2023-02-14T14:46:28.573Z,4.30
2023-02-14T14:47:36.968Z,4.30
2023-02-14T14:48:44.798Z,4.30
2023-02-14T14:49:48.771Z,4.30
2023-02-14T14:50:52.081Z,4.30
2023-02-14T14:51:57.756Z,4.40
2023-02-14T14:53:03.791Z,4.30
2023-02-14T14:54:08.500Z,4.30
2023-02-14T14:55:19.385Z,4.30
2023-02-14T14:56:24.259Z,4.30
2023-02-14T14:57:27.784Z,4.20